createdAt,value
2016-09-18T00:00:24.313Z,0
2016-09-18T00:01:24.963Z,0
2016-09-18T00:02:25.599Z,0
2016-09-18T00:03:26.242Z,0
2016-09-18T00:04:26.904Z,0
2016-09-18T00:05:27.553Z,0
2016-09-18T00:06:28.203Z,0
2016-09-18T00:07:28.960Z,0
2016-09-18T00:08:29.656Z,0
2016-09-18T00:09:30.320Z,0
2016-09-18T00:10:31.145Z,0
2016-09-18T00:11:31.775Z,0
2016-09-18T00:12:32.450Z,0
2016-09-18T00:13:33.063Z,0
2016-09-18T00:14:33.699Z,0
2016-09-18T00:15:35.234Z,0
2016-09-18T00:16:35.869Z,0
2016-09-18T00:17:36.517Z,0
2016-09-18T00:18:37.164Z,0
2016-09-18T00:19:37.811Z,0
2016-09-18T00:20:38.459Z,0
2016-09-18T00:21:39.100Z,0
2016-09-18T00:22:39.751Z,0
2016-09-18T00:23:44.383Z,0
2016-09-18T00:24:45.023Z,0
2016-09-18T00:25:45.679Z,0
2016-09-18T00:26:46.325Z,0
2016-09-18T00:27:46.974Z,0
2016-09-18T00:28:47.637Z,0
2016-09-18T00:29:48.279Z,0
2016-09-18T00:30:48.949Z,0
2016-09-18T00:31:49.608Z,0
2016-09-18T00:32:50.251Z,0
2016-09-18T00:33:50.914Z,0
2016-09-18T00:34:51.552Z,0
2016-09-18T00:35:52.193Z,0
2016-09-18T00:36:52.835Z,0
2016-09-18T00:37:53.472Z,0
2016-09-18T00:38:54.161Z,0
2016-09-18T00:39:54.811Z,0
2016-09-18T00:40:55.480Z,0
2016-09-18T00:41:56.133Z,0
2016-09-18T00:42:56.788Z,0
2016-09-18T00:43:57.448Z,0
2016-09-18T00:44:58.087Z,0
2016-09-18T00:45:58.741Z,0
2016-09-18T00:46:59.412Z,0
2016-09-18T00:48:00.096Z,0
2016-09-18T00:49:00.757Z,0
2016-09-18T00:50:01.409Z,0
2016-09-18T00:51:02.085Z,0
2016-09-18T00:52:02.711Z,0
2016-09-18T00:53:03.360Z,0
2016-09-18T00:54:04.017Z,0
2016-09-18T00:55:04.658Z,0
2016-09-18T00:56:05.325Z,0
2016-09-18T00:57:05.984Z,0
2016-09-18T00:58:06.653Z,0
2016-09-18T00:59:07.323Z,0
2016-09-18T01:00:07.980Z,0
2016-09-18T01:01:08.634Z,0
2016-09-18T01:02:09.288Z,0
2016-09-18T01:03:09.934Z,0
2016-09-18T01:04:10.583Z,0
2016-09-18T01:05:11.231Z,0
2016-09-18T01:06:11.882Z,0
2016-09-18T01:07:12.543Z,0
2016-09-18T01:08:13.194Z,0
2016-09-18T01:09:13.850Z,0
2016-09-18T01:10:14.517Z,0
2016-09-18T01:11:15.168Z,0
2016-09-18T01:12:15.833Z,0
2016-09-18T01:13:16.473Z,0
2016-09-18T01:14:17.110Z,0
2016-09-18T01:15:17.764Z,0
2016-09-18T01:16:18.417Z,0
2016-09-18T01:17:19.060Z,0
2016-09-18T01:18:19.731Z,0
2016-09-18T01:19:20.383Z,0
2016-09-18T01:20:21.032Z,0
2016-09-18T01:21:21.680Z,0
2016-09-18T01:22:22.329Z,0
2016-09-18T01:23:23.002Z,0
2016-09-18T01:24:23.632Z,0
2016-09-18T01:25:24.278Z,0
2016-09-18T01:26:24.925Z,0
2016-09-18T01:27:25.576Z,0
2016-09-18T01:28:26.238Z,0
2016-09-18T01:29:26.897Z,0
2016-09-18T01:30:27.549Z,0
2016-09-18T01:31:28.249Z,0
2016-09-18T01:32:28.906Z,0
2016-09-18T01:33:29.587Z,0
2016-09-18T01:34:30.227Z,0
2016-09-18T01:35:30.895Z,0
2016-09-18T01:36:31.543Z,0
2016-09-18T01:37:32.231Z,0
2016-09-18T01:38:32.884Z,0
2016-09-18T01:39:33.543Z,0
2016-09-18T01:40:34.192Z,0
2016-09-18T01:41:34.848Z,0
2016-09-18T01:42:35.504Z,0
2016-09-18T01:43:36.168Z,0
2016-09-18T01:44:36.813Z,0
2016-09-18T01:45:37.452Z,0
2016-09-18T01:46:38.088Z,0
2016-09-18T01:47:38.725Z,0
2016-09-18T01:48:39.361Z,0
2016-09-18T01:49:40.012Z,0
2016-09-18T01:50:40.670Z,0
2016-09-18T01:51:41.316Z,0
2016-09-18T01:52:41.984Z,0
2016-09-18T01:53:42.637Z,0
2016-09-18T01:54:43.299Z,0
2016-09-18T01:55:43.911Z,0
2016-09-18T01:56:44.564Z,0
2016-09-18T01:57:45.259Z,0
2016-09-18T01:58:45.920Z,0
2016-09-18T01:59:46.583Z,0
2016-09-18T02:00:47.234Z,0
2016-09-18T02:01:47.880Z,0
2016-09-18T02:02:48.534Z,0
2016-09-18T02:03:49.186Z,0
2016-09-18T02:04:49.856Z,0
2016-09-18T02:05:50.497Z,0
2016-09-18T02:06:51.156Z,0
2016-09-18T02:07:51.781Z,0
2016-09-18T02:08:52.437Z,0
2016-09-18T02:09:53.092Z,0
2016-09-18T02:10:53.730Z,0
2016-09-18T02:11:54.405Z,0
2016-09-18T02:12:55.054Z,0
2016-09-18T02:13:55.697Z,0
2016-09-18T02:14:56.372Z,0
2016-09-18T02:15:57.109Z,0
2016-09-18T02:16:58.034Z,0
2016-09-18T02:17:58.719Z,0
2016-09-18T02:18:59.372Z,0
2016-09-18T02:20:00.029Z,0
2016-09-18T02:21:00.679Z,0
2016-09-18T02:22:01.404Z,0
2016-09-18T02:23:02.059Z,0
2016-09-18T02:24:02.704Z,0
2016-09-18T02:25:03.347Z,0
2016-09-18T02:26:03.980Z,0
2016-09-18T02:27:04.648Z,0
2016-09-18T02:28:05.307Z,0
2016-09-18T02:29:05.947Z,0
2016-09-18T02:30:06.618Z,0
2016-09-18T02:31:07.263Z,0
2016-09-18T02:32:07.879Z,0
2016-09-18T02:33:08.531Z,0
2016-09-18T02:34:09.164Z,0
2016-09-18T02:35:09.832Z,0
2016-09-18T02:36:10.478Z,0
2016-09-18T02:37:11.123Z,0
2016-09-18T02:38:11.769Z,0
2016-09-18T02:39:12.429Z,0
2016-09-18T02:40:13.085Z,0
2016-09-18T02:41:13.755Z,0
2016-09-18T02:42:14.397Z,0
2016-09-18T02:43:15.059Z,0
2016-09-18T02:44:15.730Z,0
2016-09-18T02:45:16.373Z,0
2016-09-18T02:46:17.061Z,0
2016-09-18T02:47:17.737Z,0
2016-09-18T02:48:18.372Z,0
2016-09-18T02:49:19.010Z,0
2016-09-18T02:50:19.705Z,0
2016-09-18T02:51:20.353Z,0
2016-09-18T02:52:20.989Z,0
2016-09-18T02:53:21.632Z,0
2016-09-18T02:54:22.268Z,0
2016-09-18T02:55:22.919Z,0
2016-09-18T02:56:23.576Z,0
2016-09-18T02:57:24.249Z,0
2016-09-18T02:58:24.893Z,0
2016-09-18T02:59:25.549Z,0
2016-09-18T03:00:26.212Z,0
2016-09-18T03:01:26.864Z,0
2016-09-18T03:02:27.507Z,0
2016-09-18T03:03:28.161Z,0
2016-09-18T03:04:28.796Z,0
2016-09-18T03:05:29.437Z,0
2016-09-18T03:06:30.106Z,0
2016-09-18T03:07:30.757Z,0
2016-09-18T03:08:31.863Z,0
2016-09-18T03:09:32.437Z,0
2016-09-18T03:10:33.103Z,0
2016-09-18T03:11:33.760Z,0
2016-09-18T03:12:34.403Z,0
2016-09-18T03:13:35.068Z,0
2016-09-18T03:14:35.705Z,0
2016-09-18T03:15:36.355Z,0
2016-09-18T03:16:37.019Z,0
2016-09-18T03:17:37.650Z,0
2016-09-18T03:18:38.292Z,0
2016-09-18T03:19:38.939Z,0
2016-09-18T03:20:39.564Z,0
2016-09-18T03:21:40.220Z,0
2016-09-18T03:22:40.856Z,0
2016-09-18T03:23:41.536Z,0
2016-09-18T03:24:42.187Z,0
2016-09-18T03:25:42.843Z,0
2016-09-18T03:26:43.498Z,0
2016-09-18T03:27:44.130Z,0
2016-09-18T03:28:44.763Z,0
2016-09-18T03:29:45.400Z,0
2016-09-18T03:30:46.037Z,0
2016-09-18T03:31:46.679Z,0
2016-09-18T03:32:47.317Z,0
2016-09-18T03:33:47.957Z,0
2016-09-18T03:34:48.614Z,0
2016-09-18T03:35:49.257Z,0
2016-09-18T03:36:49.921Z,0
2016-09-18T03:37:50.568Z,0
2016-09-18T03:38:51.217Z,0
2016-09-18T03:39:51.857Z,0
2016-09-18T03:40:52.509Z,0
2016-09-18T03:41:53.178Z,0
2016-09-18T03:42:53.825Z,0
2016-09-18T03:43:54.491Z,0
2016-09-18T03:44:55.144Z,0
2016-09-18T03:45:55.802Z,0
2016-09-18T03:46:56.465Z,0
2016-09-18T03:47:57.119Z,0
2016-09-18T03:48:57.760Z,0
2016-09-18T03:49:58.423Z,0
2016-09-18T03:50:59.062Z,0
2016-09-18T03:51:59.701Z,0
2016-09-18T03:53:00.344Z,0
2016-09-18T03:54:00.987Z,0
2016-09-18T03:55:01.626Z,0
2016-09-18T03:56:02.262Z,0
2016-09-18T03:57:02.907Z,0
2016-09-18T03:58:03.550Z,0
2016-09-18T03:59:04.195Z,0
2016-09-18T04:00:04.851Z,0
2016-09-18T04:01:05.476Z,0
2016-09-18T04:02:06.118Z,0
2016-09-18T04:03:06.768Z,0
2016-09-18T04:04:07.419Z,0
2016-09-18T04:05:08.074Z,0
2016-09-18T04:06:08.728Z,0
2016-09-18T04:07:09.377Z,0
2016-09-18T04:08:10.010Z,0
2016-09-18T04:09:10.656Z,0
2016-09-18T04:10:11.305Z,0
2016-09-18T04:11:11.946Z,0
2016-09-18T04:12:12.585Z,0
2016-09-18T04:13:13.219Z,0
2016-09-18T04:14:13.872Z,0
2016-09-18T04:15:14.522Z,0
2016-09-18T04:16:15.180Z,0
2016-09-18T04:17:15.848Z,0
2016-09-18T04:18:16.498Z,0
2016-09-18T04:19:17.132Z,0
2016-09-18T04:20:17.761Z,0
2016-09-18T04:21:18.425Z,0
2016-09-18T04:22:19.077Z,0
2016-09-18T04:23:19.733Z,0
2016-09-18T04:24:20.372Z,0
2016-09-18T04:25:21.025Z,4
2016-09-18T04:26:21.699Z,0
2016-09-18T04:27:22.374Z,4
2016-09-18T04:28:23.037Z,4
2016-09-18T04:29:23.697Z,4
2016-09-18T04:30:24.359Z,8
2016-09-18T04:31:25.070Z,4
2016-09-18T04:32:25.697Z,8
2016-09-18T04:33:26.362Z,8
2016-09-18T04:34:27.007Z,8
2016-09-18T04:35:27.802Z,12
2016-09-18T04:36:28.443Z,12
2016-09-18T04:37:29.097Z,16
2016-09-18T04:38:29.743Z,20
2016-09-18T04:39:30.393Z,20
2016-09-18T04:40:31.057Z,24
2016-09-18T04:41:31.701Z,28
2016-09-18T04:42:32.333Z,32
2016-09-18T04:43:32.985Z,36
2016-09-18T04:44:33.638Z,40
2016-09-18T04:45:34.326Z,48
2016-09-18T04:46:34.981Z,56
2016-09-18T04:47:35.619Z,68
2016-09-18T04:48:36.259Z,72
2016-09-18T04:49:36.918Z,84
2016-09-18T04:50:37.567Z,96
2016-09-18T04:51:38.221Z,104
2016-09-18T04:52:38.859Z,120
2016-09-18T04:53:39.497Z,128
2016-09-18T04:54:40.147Z,144
2016-09-18T04:55:40.784Z,156
2016-09-18T04:56:41.448Z,176
2016-09-18T04:57:42.101Z,192
2016-09-18T04:58:42.749Z,208
2016-09-18T04:59:43.406Z,224
2016-09-18T05:00:44.063Z,244
2016-09-18T05:01:44.709Z,268
2016-09-18T05:02:45.359Z,288
2016-09-18T05:03:46.005Z,308
2016-09-18T05:04:46.655Z,332
2016-09-18T05:05:47.314Z,356
2016-09-18T05:06:47.972Z,384
2016-09-18T05:07:48.618Z,408
2016-09-18T05:08:49.245Z,436
2016-09-18T05:09:49.881Z,464
2016-09-18T05:10:50.532Z,492
2016-09-18T05:11:51.158Z,520
2016-09-18T05:12:51.829Z,548
2016-09-18T05:13:52.502Z,580
2016-09-18T05:14:53.162Z,608
2016-09-18T05:15:53.813Z,640
2016-09-18T05:16:54.466Z,672
2016-09-18T05:17:55.116Z,704
2016-09-18T05:18:55.789Z,740
2016-09-18T05:19:56.429Z,772
2016-09-18T05:20:57.078Z,804
2016-09-18T05:21:57.737Z,836
2016-09-18T05:22:58.386Z,872
2016-09-18T05:23:59.050Z,904
2016-09-18T05:24:59.708Z,940
2016-09-18T05:26:00.366Z,968
2016-09-18T05:27:01.023Z,1000
2016-09-18T05:28:01.659Z,1032
2016-09-18T05:29:02.312Z,1060
2016-09-18T05:30:02.958Z,1096
2016-09-18T05:31:03.607Z,1128
2016-09-18T05:32:04.256Z,1160
2016-09-18T05:33:04.911Z,1192
2016-09-18T05:34:05.541Z,1220
2016-09-18T05:35:06.190Z,1252
2016-09-18T05:36:06.879Z,1276
2016-09-18T05:37:07.541Z,1304
2016-09-18T05:38:08.213Z,1336
2016-09-18T05:39:08.857Z,1364
2016-09-18T05:40:09.511Z,1392
2016-09-18T05:41:10.159Z,1424
2016-09-18T05:42:10.812Z,1452
2016-09-18T05:43:11.460Z,1484
2016-09-18T05:44:12.142Z,1516
2016-09-18T05:45:12.799Z,1552
2016-09-18T05:46:13.445Z,1588
2016-09-18T05:47:14.117Z,1620
2016-09-18T05:48:14.758Z,1660
2016-09-18T05:49:15.405Z,1700
2016-09-18T05:50:16.080Z,1732
2016-09-18T05:51:16.750Z,1768
2016-09-18T05:52:17.430Z,1808
2016-09-18T05:53:18.081Z,1844
2016-09-18T05:54:18.732Z,1888
2016-09-18T05:55:19.394Z,1920
2016-09-18T05:56:20.032Z,1964
2016-09-18T05:57:20.683Z,2004
2016-09-18T05:58:21.322Z,2040
2016-09-18T05:59:21.977Z,2072
2016-09-18T06:00:22.646Z,2104
2016-09-18T06:01:23.295Z,2140
2016-09-18T06:02:23.950Z,2184
2016-09-18T06:03:24.593Z,2228
2016-09-18T06:04:25.233Z,2280
2016-09-18T06:05:25.907Z,2324
2016-09-18T06:06:26.547Z,2360
2016-09-18T06:07:27.202Z,2392
2016-09-18T06:08:27.879Z,2420
2016-09-18T06:09:28.545Z,2464
2016-09-18T06:10:29.208Z,2508
2016-09-18T06:11:29.891Z,2548
2016-09-18T06:12:30.560Z,2608
2016-09-18T06:13:31.239Z,2656
2016-09-18T06:14:31.896Z,2700
2016-09-18T06:15:32.590Z,2724
2016-09-18T06:16:33.255Z,2732
2016-09-18T06:17:34.024Z,2752
2016-09-18T06:18:34.697Z,2740
2016-09-18T06:19:35.353Z,2716
2016-09-18T06:20:36.002Z,2708
2016-09-18T06:21:36.650Z,2708
2016-09-18T06:22:37.291Z,2724
2016-09-18T06:23:37.948Z,2756
2016-09-18T06:24:38.618Z,2772
2016-09-18T06:25:39.291Z,2788
2016-09-18T06:26:39.955Z,2856
2016-09-18T06:27:40.605Z,2912
2016-09-18T06:28:41.255Z,3408
2016-09-18T06:29:41.924Z,4188
2016-09-18T06:30:42.575Z,4276
2016-09-18T06:31:43.230Z,3736
2016-09-18T06:32:43.884Z,3192
2016-09-18T06:33:44.533Z,3584
2016-09-18T06:34:45.174Z,3684
2016-09-18T06:35:45.811Z,3360
2016-09-18T06:36:46.467Z,3372
2016-09-18T06:37:47.154Z,3508
2016-09-18T06:38:47.806Z,3552
2016-09-18T06:39:48.479Z,4192
2016-09-18T06:40:49.128Z,9092
2016-09-18T06:41:49.777Z,16800
2016-09-18T06:42:50.432Z,22848
2016-09-18T06:43:51.078Z,28960
2016-09-18T06:44:51.741Z,31712
2016-09-18T06:45:52.410Z,31552
2016-09-18T06:46:53.062Z,31616
2016-09-18T06:47:53.715Z,32064
2016-09-18T06:48:54.377Z,33376
2016-09-18T06:49:55.055Z,33888
2016-09-18T06:50:55.715Z,32672
2016-09-18T06:51:56.359Z,30176
2016-09-18T06:52:57.016Z,28640
2016-09-18T06:53:57.668Z,28448
2016-09-18T06:54:58.338Z,30176
2016-09-18T06:55:58.989Z,31936
2016-09-18T06:56:59.669Z,32064
2016-09-18T06:58:00.340Z,30880
2016-09-18T06:59:01.007Z,30336
2016-09-18T07:00:01.676Z,31840
2016-09-18T07:01:02.337Z,34496
2016-09-18T07:02:02.987Z,35680
2016-09-18T07:03:03.638Z,34016
2016-09-18T07:04:04.304Z,32000
2016-09-18T07:05:04.986Z,31456
2016-09-18T07:06:05.663Z,32576
2016-09-18T07:07:06.298Z,34144
2016-09-18T07:08:06.952Z,35328
2016-09-18T07:09:07.639Z,36352
2016-09-18T07:10:08.294Z,37280
2016-09-18T07:11:08.965Z,38336
2016-09-18T07:12:09.609Z,40960
2016-09-18T07:13:10.276Z,42624
2016-09-18T07:14:10.929Z,43072
2016-09-18T07:15:11.592Z,41152
2016-09-18T07:16:12.277Z,37504
2016-09-18T07:17:12.951Z,33664
2016-09-18T07:18:13.619Z,30816
2016-09-18T07:19:14.279Z,30528
2016-09-18T07:20:14.964Z,31968
2016-09-18T07:21:15.631Z,35840
2016-09-18T07:22:16.290Z,42208
2016-09-18T07:23:16.952Z,48224
2016-09-18T07:24:17.698Z,53792
2016-09-18T07:25:18.370Z,57440
2016-09-18T07:26:19.043Z,56320
2016-09-18T07:27:19.705Z,48864
2016-09-18T07:28:20.390Z,39776
2016-09-18T07:29:21.049Z,33152
2016-09-18T07:30:21.742Z,30464
2016-09-18T07:31:22.408Z,29248
2016-09-18T07:32:23.073Z,28288
2016-09-18T07:33:23.745Z,31104
2016-09-18T07:34:24.417Z,39264
2016-09-18T07:35:25.074Z,50368
2016-09-18T07:36:25.789Z,59296
2016-09-18T07:37:26.451Z,62496
2016-09-18T07:38:27.104Z,61024
2016-09-18T07:39:27.769Z,54560
2016-09-18T07:40:28.411Z,47488
2016-09-18T07:41:29.073Z,44192
2016-09-18T07:42:29.731Z,44480
2016-09-18T07:43:30.412Z,44352
2016-09-18T07:44:31.074Z,45088
2016-09-18T07:45:31.728Z,46496
2016-09-18T07:46:32.402Z,45856
2016-09-18T07:47:33.037Z,45216
2016-09-18T07:48:33.712Z,43296
2016-09-18T07:49:34.399Z,42240
2016-09-18T07:50:35.068Z,41536
2016-09-18T07:51:35.734Z,42272
2016-09-18T07:52:36.405Z,43648
2016-09-18T07:53:37.094Z,44480
2016-09-18T07:54:37.734Z,44416
2016-09-18T07:55:38.389Z,43552
2016-09-18T07:56:39.081Z,43808
2016-09-18T07:57:39.737Z,44608
2016-09-18T07:58:40.395Z,46784
2016-09-18T07:59:41.062Z,49088
2016-09-18T08:00:41.866Z,50496
2016-09-18T08:01:43.609Z,49312
2016-09-18T08:02:44.494Z,46816
2016-09-18T08:03:44.945Z,45600
2016-09-18T08:04:45.600Z,45984
2016-09-18T08:05:46.275Z,47072
2016-09-18T08:06:46.957Z,46496
2016-09-18T08:07:47.620Z,45440
2016-09-18T08:08:48.283Z,42784
2016-09-18T08:09:48.959Z,41472
2016-09-18T08:10:49.631Z,41408
2016-09-18T08:11:50.306Z,42560
2016-09-18T08:12:51.009Z,43808
2016-09-18T08:13:51.659Z,43936
2016-09-18T08:14:52.354Z,46176
2016-09-18T08:15:53.020Z,49920
2016-09-18T08:16:53.715Z,53376
2016-09-18T08:17:54.385Z,55232
2016-09-18T08:18:55.054Z,57824
2016-09-18T08:19:55.731Z,55072
2016-09-18T08:20:56.381Z,54176
2016-09-18T08:21:57.074Z,52352
2016-09-18T08:22:57.764Z,50432
2016-09-18T08:23:58.421Z,47008
2016-09-18T08:24:59.091Z,43424
2016-09-18T08:25:59.773Z,48800
2016-09-18T08:27:00.474Z,51808
2016-09-18T08:28:01.149Z,54080
2016-09-18T08:29:01.828Z,51968
2016-09-18T08:30:02.491Z,48352
2016-09-18T08:31:03.164Z,45152
2016-09-18T08:32:03.846Z,46048
2016-09-18T08:33:04.508Z,50880
2016-09-18T08:34:06.045Z,54208
2016-09-18T08:35:06.688Z,54304
2016-09-18T08:36:07.367Z,52160
2016-09-18T08:37:08.026Z,49632
2016-09-18T08:38:08.696Z,49184
2016-09-18T08:39:09.350Z,50944
2016-09-18T08:40:10.039Z,52864
2016-09-18T08:41:10.712Z,52128
2016-09-18T08:42:11.375Z,49792
2016-09-18T08:43:12.039Z,48864
2016-09-18T08:44:12.712Z,49024
2016-09-18T08:45:13.378Z,49184
2016-09-18T08:46:14.053Z,50144
2016-09-18T08:47:14.746Z,51872
2016-09-18T08:48:15.417Z,53120
2016-09-18T08:49:16.090Z,53792
2016-09-18T08:50:16.745Z,53280
2016-09-18T08:51:17.421Z,54112
2016-09-18T08:52:18.097Z,55296
2016-09-18T08:53:18.758Z,57376
2016-09-18T08:54:19.420Z,59392
2016-09-18T08:55:20.101Z,59904
2016-09-18T08:56:20.777Z,59680
2016-09-18T08:57:21.453Z,60128
2016-09-18T08:58:22.145Z,60672
2016-09-18T08:59:22.811Z,61312
2016-09-18T09:00:23.471Z,61568
2016-09-18T09:01:24.155Z,61504
2016-09-18T09:02:24.817Z,59776
2016-09-18T09:03:25.499Z,34848
2016-09-18T09:04:26.160Z,13872
2016-09-18T09:05:26.830Z,9788
2016-09-18T09:06:27.519Z,4776
2016-09-18T09:07:28.192Z,4864
2016-09-18T09:08:28.854Z,4852
2016-09-18T09:09:29.535Z,4784
2016-09-18T09:10:30.198Z,4760
2016-09-18T09:11:30.864Z,4816
2016-09-18T09:12:31.513Z,4832
2016-09-18T09:13:32.200Z,4748
2016-09-18T09:14:32.865Z,5088
2016-09-18T09:15:33.550Z,6020
2016-09-18T09:16:34.223Z,6032
2016-09-18T09:17:34.876Z,6300
2016-09-18T09:18:35.588Z,5992
2016-09-18T09:19:36.260Z,6572
2016-09-18T09:20:36.992Z,5328
2016-09-18T09:21:37.642Z,5804
2016-09-18T09:22:38.329Z,6068
2016-09-18T09:23:38.988Z,5152
2016-09-18T09:24:39.648Z,4508
2016-09-18T09:25:40.308Z,5132
2016-09-18T09:26:40.970Z,5440
2016-09-18T09:27:41.628Z,5616
2016-09-18T09:28:42.294Z,5628
2016-09-18T09:29:42.958Z,5032
2016-09-18T09:30:43.626Z,5644
2016-09-18T09:31:44.283Z,6316
2016-09-18T09:32:44.953Z,6984
2016-09-18T09:33:45.605Z,6844
2016-09-18T09:34:46.292Z,7780
2016-09-18T09:35:47.031Z,6196
2016-09-18T09:36:47.667Z,8744
2016-09-18T09:37:48.309Z,9264
2016-09-18T09:38:48.984Z,7148
2016-09-18T09:39:49.637Z,8516
2016-09-18T09:40:50.322Z,10276
2016-09-18T09:41:50.974Z,11428
2016-09-18T09:42:51.631Z,12640
2016-09-18T09:43:52.289Z,11252
2016-09-18T09:44:52.947Z,13096
2016-09-18T09:45:53.645Z,12460
2016-09-18T09:46:54.310Z,11140
2016-09-18T09:47:54.946Z,12444
2016-09-18T09:48:55.598Z,13432
2016-09-18T09:49:56.275Z,13860
2016-09-18T09:50:56.946Z,14432
2016-09-18T09:51:57.626Z,12552
2016-09-18T09:52:58.306Z,13392
2016-09-18T09:53:58.954Z,14428
2016-09-18T09:54:59.606Z,13032
2016-09-18T09:56:00.260Z,10940
2016-09-18T09:57:00.908Z,8900
2016-09-18T09:58:01.555Z,8676
2016-09-18T09:59:02.218Z,8356
2016-09-18T10:00:02.868Z,9404
2016-09-18T10:01:03.527Z,9756
2016-09-18T10:02:04.182Z,8944
2016-09-18T10:03:04.837Z,8352
2016-09-18T10:04:05.487Z,8760
2016-09-18T10:05:06.141Z,9144
2016-09-18T10:06:06.806Z,9664
2016-09-18T10:07:07.456Z,10492
2016-09-18T10:08:08.109Z,9940
2016-09-18T10:09:08.751Z,9508
2016-09-18T10:10:09.426Z,9620
2016-09-18T10:11:10.114Z,9956
2016-09-18T10:12:10.779Z,10164
2016-09-18T10:13:11.424Z,10084
2016-09-18T10:14:12.076Z,10252
2016-09-18T10:15:12.740Z,11700
2016-09-18T10:16:13.390Z,12160
2016-09-18T10:17:14.036Z,11052
2016-09-18T10:18:14.690Z,11204
2016-09-18T10:19:15.355Z,12332
2016-09-18T10:20:16.010Z,12396
2016-09-18T10:21:16.697Z,12360
2016-09-18T10:22:17.376Z,12936
2016-09-18T10:23:18.034Z,12080
2016-09-18T10:24:18.689Z,10660
2016-09-18T10:25:19.346Z,10684
2016-09-18T10:26:20.010Z,10544
2016-09-18T10:27:20.667Z,10296
2016-09-18T10:28:21.375Z,10192
2016-09-18T10:29:22.038Z,10224
2016-09-18T10:30:22.725Z,11124
2016-09-18T10:31:23.381Z,10388
2016-09-18T10:32:24.065Z,10540
2016-09-18T10:33:24.721Z,10988
2016-09-18T10:34:25.387Z,11096
2016-09-18T10:35:26.034Z,10800
2016-09-18T10:36:26.691Z,11120
2016-09-18T10:37:27.378Z,11776
2016-09-18T10:38:28.046Z,11496
2016-09-18T10:39:28.686Z,10604
2016-09-18T10:40:29.411Z,11100
2016-09-18T10:41:30.070Z,12048
2016-09-18T10:42:30.769Z,13032
2016-09-18T10:43:31.441Z,13496
2016-09-18T10:44:32.090Z,12648
2016-09-18T10:45:32.737Z,11204
2016-09-18T10:46:33.409Z,11188
2016-09-18T10:47:34.058Z,11092
2016-09-18T10:48:34.714Z,11324
2016-09-18T10:49:35.372Z,11264
2016-09-18T10:50:36.035Z,11332
2016-09-18T10:51:36.702Z,11260
2016-09-18T10:52:37.395Z,10308
2016-09-18T10:53:38.071Z,10804
2016-09-18T10:54:38.742Z,10640
2016-09-18T10:55:39.394Z,10332
2016-09-18T10:56:40.039Z,9592
2016-09-18T10:57:40.693Z,9552
2016-09-18T10:58:41.364Z,9976
2016-09-18T10:59:42.027Z,10532
2016-09-18T11:00:42.694Z,10640
2016-09-18T11:01:43.375Z,10232
2016-09-18T11:02:44.011Z,9448
2016-09-18T11:03:44.661Z,8992
2016-09-18T11:04:45.313Z,9180
2016-09-18T11:05:45.977Z,9432
2016-09-18T11:06:46.649Z,9492
2016-09-18T11:07:47.308Z,8768
2016-09-18T11:08:48.014Z,8432
2016-09-18T11:09:48.670Z,8896
2016-09-18T11:10:49.345Z,9192
2016-09-18T11:11:50.010Z,9080
2016-09-18T11:12:50.695Z,8644
2016-09-18T11:13:51.358Z,8432
2016-09-18T11:14:52.034Z,8152
2016-09-18T11:15:52.672Z,8616
2016-09-18T11:16:53.325Z,8984
2016-09-18T11:17:53.976Z,9300
2016-09-18T11:18:54.661Z,9540
2016-09-18T11:19:55.320Z,9616
2016-09-18T11:20:55.974Z,9516
2016-09-18T11:21:56.624Z,9204
2016-09-18T11:22:57.294Z,9388
2016-09-18T11:23:57.969Z,9372
2016-09-18T11:24:58.658Z,9352
2016-09-18T11:25:59.324Z,9332
2016-09-18T11:26:59.986Z,9416
2016-09-18T11:28:00.657Z,9536
2016-09-18T11:29:01.337Z,9804
2016-09-18T11:30:02.028Z,9956
2016-09-18T11:31:02.679Z,10028
2016-09-18T11:32:03.332Z,10208
2016-09-18T11:33:03.967Z,10188
2016-09-18T11:34:04.615Z,9964
2016-09-18T11:35:05.272Z,9824
2016-09-18T11:36:05.922Z,9772
2016-09-18T11:37:06.591Z,9672
2016-09-18T11:38:07.241Z,9860
2016-09-18T11:39:07.897Z,10260
2016-09-18T11:40:08.581Z,10128
2016-09-18T11:41:09.245Z,10064
2016-09-18T11:42:09.897Z,10152
2016-09-18T11:43:10.554Z,10292
2016-09-18T11:44:11.219Z,10488
2016-09-18T11:45:11.873Z,10596
2016-09-18T11:46:12.538Z,10824
2016-09-18T11:47:13.196Z,10868
2016-09-18T11:48:13.888Z,11376
2016-09-18T11:49:14.589Z,11508
2016-09-18T11:50:15.254Z,11796
2016-09-18T11:51:15.928Z,11696
2016-09-18T11:52:16.588Z,11576
2016-09-18T11:53:17.248Z,11976
2016-09-18T11:54:17.896Z,11888
2016-09-18T11:55:18.627Z,11848
2016-09-18T11:56:19.276Z,11892
2016-09-18T11:57:19.956Z,11812
2016-09-18T11:58:20.627Z,11876
2016-09-18T11:59:21.286Z,11500
2016-09-18T12:00:21.951Z,11480
2016-09-18T12:01:22.630Z,10980
2016-09-18T12:02:23.325Z,10880
2016-09-18T12:03:23.987Z,10824
2016-09-18T12:04:24.678Z,10204
2016-09-18T12:05:25.336Z,10128
2016-09-18T12:06:25.985Z,9984
2016-09-18T12:07:26.647Z,9968
2016-09-18T12:08:27.307Z,10092
2016-09-18T12:09:27.974Z,9660
2016-09-18T12:10:28.661Z,9664
2016-09-18T12:11:29.339Z,9196
2016-09-18T12:12:30.009Z,9616
2016-09-18T12:13:30.730Z,9264
2016-09-18T12:14:31.397Z,8444
2016-09-18T12:15:32.044Z,8032
2016-09-18T12:16:32.691Z,7252
2016-09-18T12:17:33.367Z,7180
2016-09-18T12:18:34.038Z,7504
2016-09-18T12:19:34.714Z,7324
2016-09-18T12:20:35.386Z,6328
2016-09-18T12:21:36.050Z,7584
2016-09-18T12:22:36.711Z,9372
2016-09-18T12:23:37.407Z,10764
2016-09-18T12:24:38.071Z,10524
2016-09-18T12:25:38.732Z,10352
2016-09-18T12:26:39.391Z,10284
2016-09-18T12:27:40.060Z,10364
2016-09-18T12:28:40.732Z,10184
2016-09-18T12:29:41.385Z,9276
2016-09-18T12:30:42.045Z,9452
2016-09-18T12:31:42.694Z,9992
2016-09-18T12:32:43.350Z,10276
2016-09-18T12:33:44.068Z,10236
2016-09-18T12:34:44.721Z,10240
2016-09-18T12:35:45.385Z,9776
2016-09-18T12:36:46.040Z,9704
2016-09-18T12:37:46.701Z,9764
2016-09-18T12:38:47.375Z,9248
2016-09-18T12:39:48.030Z,9632
2016-09-18T12:40:48.686Z,9376
2016-09-18T12:41:49.349Z,9124
2016-09-18T12:42:50.008Z,8992
2016-09-18T12:43:50.694Z,8688
2016-09-18T12:44:51.369Z,8236
2016-09-18T12:45:52.019Z,8236
2016-09-18T12:46:52.682Z,8068
2016-09-18T12:47:53.361Z,7936
2016-09-18T12:48:54.029Z,7536
2016-09-18T12:49:54.688Z,7812
2016-09-18T12:50:55.350Z,8264
2016-09-18T12:51:56.019Z,7912
2016-09-18T12:52:56.721Z,7600
2016-09-18T12:53:57.397Z,8156
2016-09-18T12:54:58.048Z,8132
2016-09-18T12:55:58.722Z,7852
2016-09-18T12:56:59.374Z,7512
2016-09-18T12:58:00.052Z,7500
2016-09-18T12:59:00.699Z,7216
2016-09-18T13:00:01.376Z,7352
2016-09-18T13:01:02.035Z,7548
2016-09-18T13:02:02.693Z,7356
2016-09-18T13:03:03.357Z,8216
2016-09-18T13:04:04.038Z,6760
2016-09-18T13:05:04.693Z,6488
2016-09-18T13:06:05.381Z,6664
2016-09-18T13:07:06.042Z,7528
2016-09-18T13:08:06.704Z,8020
2016-09-18T13:09:07.374Z,7560
2016-09-18T13:10:08.028Z,7032
2016-09-18T13:11:08.680Z,7280
2016-09-18T13:12:09.333Z,6932
2016-09-18T13:13:09.986Z,6228
2016-09-18T13:14:10.659Z,6504
2016-09-18T13:15:11.300Z,6288
2016-09-18T13:16:11.950Z,5556
2016-09-18T13:17:12.612Z,4784
2016-09-18T13:18:13.266Z,4660
2016-09-18T13:19:13.919Z,5004
2016-09-18T13:20:14.575Z,5024
2016-09-18T13:21:15.224Z,4996
2016-09-18T13:22:15.901Z,5340
2016-09-18T13:23:16.554Z,5296
2016-09-18T13:24:17.206Z,4596
2016-09-18T13:25:17.857Z,4356
2016-09-18T13:26:18.535Z,4300
2016-09-18T13:27:19.210Z,3876
2016-09-18T13:28:19.876Z,3240
2016-09-18T13:29:20.514Z,3012
2016-09-18T13:30:21.170Z,2828
2016-09-18T13:31:21.808Z,2908
2016-09-18T13:32:22.471Z,2812
2016-09-18T13:33:23.121Z,2468
2016-09-18T13:34:23.824Z,2000
2016-09-18T13:35:24.501Z,1900
2016-09-18T13:36:25.171Z,2312
2016-09-18T13:37:25.815Z,3188
2016-09-18T13:38:26.494Z,3440
2016-09-18T13:39:27.165Z,3672
2016-09-18T13:40:27.805Z,4012
2016-09-18T13:41:28.469Z,4216
2016-09-18T13:42:29.129Z,4372
2016-09-18T13:43:29.803Z,4552
2016-09-18T13:44:30.487Z,4708
2016-09-18T13:45:31.158Z,5100
2016-09-18T13:46:31.823Z,5312
2016-09-18T13:47:32.485Z,5432
2016-09-18T13:48:33.208Z,5492